createdAt,value
2023-03-15T00:00:23.948Z,101132.94
2023-03-15T00:02:50.986Z,101137.41
2023-03-15T00:05:18.055Z,101147.00
2023-03-15T00:07:44.997Z,101147.50
2023-03-15T00:10:12.184Z,101147.28
2023-03-15T00:12:39.115Z,101157.09
2023-03-15T00:15:06.450Z,101160.75
2023-03-15T00:17:35.357Z,101170.03
2023-03-15T00:20:02.910Z,101167.22
2023-03-15T00:22:30.097Z,101174.81
2023-03-15T00:24:56.988Z,101175.16
2023-03-15T00:27:23.880Z,101175.16
2023-03-15T00:29:51.762Z,101179.94
2023-03-15T00:32:18.692Z,101183.59
2023-03-15T00:34:49.299Z,101186.66
2023-03-15T00:37:17.479Z,101189.28
2023-03-15T00:39:45.734Z,101191.25
2023-03-15T00:42:15.801Z,101192.94
2023-03-15T00:44:43.336Z,101204.19
2023-03-15T00:47:11.331Z,101204.78
2023-03-15T00:49:38.451Z,101212.91
2023-03-15T00:52:05.848Z,101212.91
2023-03-15T00:54:34.386Z,101213.22
2023-03-15T00:57:01.653Z,101215.00
2023-03-15T00:59:29.439Z,101211.34
2023-03-15T01:01:56.377Z,101218.13
2023-03-15T01:04:23.287Z,101212.50
2023-03-15T01:06:50.309Z,101209.16
2023-03-15T01:09:17.997Z,101212.28
2023-03-15T01:11:44.880Z,101222.47
2023-03-15T01:14:11.819Z,101219.16
2023-03-15T01:16:38.778Z,101225.09
2023-03-15T01:19:05.824Z,101227.69
2023-03-15T01:21:32.848Z,101229.97
2023-03-15T01:23:59.795Z,101223.84
2023-03-15T01:26:26.688Z,101236.50
2023-03-15T01:28:53.640Z,101232.66
2023-03-15T01:31:24.622Z,101232.16
2023-03-15T01:33:51.789Z,101237.53
2023-03-15T01:36:19.256Z,101232.22
2023-03-15T01:38:46.216Z,101232.81
2023-03-15T01:41:14.048Z,101238.25
2023-03-15T01:43:47.524Z,101242.81
2023-03-15T01:46:17.594Z,101250.69
2023-03-15T01:48:47.926Z,101246.84
2023-03-15T01:51:18.542Z,101257.66
2023-03-15T01:53:48.536Z,101248.75
2023-03-15T01:56:15.914Z,101259.47
2023-03-15T01:58:44.276Z,101266.28
2023-03-15T02:01:11.590Z,101271.88
2023-03-15T02:03:46.850Z,101272.50
2023-03-15T02:06:18.365Z,101281.56
2023-03-15T02:08:49.652Z,101277.13
2023-03-15T02:11:18.158Z,101282.22
2023-03-15T02:13:45.373Z,101291.03
2023-03-15T02:16:12.426Z,101284.03
2023-03-15T02:18:39.403Z,101279.56
2023-03-15T02:21:09.333Z,101286.09
2023-03-15T02:23:36.182Z,101280.22
2023-03-15T02:26:06.259Z,101269.31
2023-03-15T02:28:33.432Z,101279.72
2023-03-15T02:31:00.550Z,101283.72
2023-03-15T02:33:30.595Z,101276.41
2023-03-15T02:36:06.401Z,101281.53
2023-03-15T02:38:33.346Z,101286.06
2023-03-15T02:41:00.626Z,101285.84
2023-03-15T02:43:29.248Z,101290.06
2023-03-15T02:45:56.809Z,101290.34
2023-03-15T02:48:23.749Z,101294.31
2023-03-15T02:50:50.596Z,101290.69
2023-03-15T02:53:17.460Z,101300.00
2023-03-15T02:55:44.394Z,101301.41
2023-03-15T02:58:11.289Z,101302.56
2023-03-15T03:00:38.746Z,101301.47
2023-03-15T03:03:05.739Z,101295.34
2023-03-15T03:05:32.636Z,101306.03
2023-03-15T03:07:59.643Z,101314.75
2023-03-15T03:10:26.550Z,101315.34
2023-03-15T03:12:53.853Z,101311.13
2023-03-15T03:15:21.093Z,101304.13
2023-03-15T03:17:48.112Z,101296.88
2023-03-15T03:20:15.407Z,101297.75
2023-03-15T03:22:42.541Z,101298.06
2023-03-15T03:25:10.805Z,101292.22
2023-03-15T03:27:37.663Z,101303.72
2023-03-15T03:30:05.654Z,101309.59
2023-03-15T03:32:32.583Z,101315.31
2023-03-15T03:34:59.651Z,101316.44
2023-03-15T03:37:26.714Z,101324.59
2023-03-15T03:39:53.587Z,101324.06
2023-03-15T03:42:20.540Z,101330.78
2023-03-15T03:44:47.403Z,101321.84
2023-03-15T03:47:14.300Z,101327.19
2023-03-15T03:49:41.177Z,101339.00
2023-03-15T03:52:08.311Z,101352.50
2023-03-15T03:54:35.157Z,101356.13
2023-03-15T03:57:02.035Z,101362.31
2023-03-15T03:59:29.108Z,101358.69
2023-03-15T04:01:55.982Z,101360.97
2023-03-15T04:04:23.069Z,101359.28
2023-03-15T04:06:51.086Z,101352.28
2023-03-15T04:09:18.068Z,101355.38
2023-03-15T04:11:45.034Z,101349.22
2023-03-15T04:14:12.637Z,101359.91
2023-03-15T04:16:40.007Z,101346.47
2023-03-15T04:19:07.366Z,101357.16
2023-03-15T04:21:34.798Z,101358.28
2023-03-15T04:24:02.204Z,101362.19
2023-03-15T04:26:29.576Z,101357.19
2023-03-15T04:28:57.488Z,101349.38
2023-03-15T04:31:27.825Z,101356.09
2023-03-15T04:33:55.249Z,101351.63
2023-03-15T04:36:23.007Z,101348.25
2023-03-15T04:38:50.239Z,101351.66
2023-03-15T04:41:18.024Z,101365.66
2023-03-15T04:43:44.925Z,101362.34
2023-03-15T04:46:11.838Z,101357.84
2023-03-15T04:48:38.802Z,101354.50
2023-03-15T04:51:05.840Z,101352.00
2023-03-15T04:53:33.333Z,101353.41
2023-03-15T04:56:00.764Z,101358.47
2023-03-15T04:58:28.768Z,101366.03
2023-03-15T05:00:55.673Z,101360.69
2023-03-15T05:03:22.615Z,101373.84
2023-03-15T05:05:49.493Z,101368.84
2023-03-15T05:08:16.393Z,101364.09
2023-03-15T05:10:43.411Z,101360.72
2023-03-15T05:13:10.384Z,101357.91
2023-03-15T05:15:37.259Z,101349.75
2023-03-15T05:18:04.529Z,101353.75
2023-03-15T05:20:32.315Z,101371.97
2023-03-15T05:22:59.340Z,101365.25
2023-03-15T05:25:26.226Z,101368.06
2023-03-15T05:27:53.575Z,101367.19
2023-03-15T05:30:20.857Z,101369.13
2023-03-15T05:32:48.015Z,101382.00
2023-03-15T05:35:15.032Z,101381.38
2023-03-15T05:37:42.658Z,101379.91
2023-03-15T05:40:10.446Z,101381.53
2023-03-15T05:42:37.814Z,101386.78
2023-03-15T05:45:05.124Z,101393.53
2023-03-15T05:47:33.711Z,101390.13
2023-03-15T05:50:00.954Z,101388.41
2023-03-15T05:52:27.904Z,101398.75
2023-03-15T05:54:54.878Z,101406.28
2023-03-15T05:57:21.790Z,101405.38
2023-03-15T05:59:49.537Z,101404.22
2023-03-15T06:02:16.385Z,101396.56
2023-03-15T06:04:43.339Z,101408.59
2023-03-15T06:07:10.266Z,101409.38
2023-03-15T06:09:37.428Z,101406.53
2023-03-15T06:12:04.851Z,101416.63
2023-03-15T06:14:31.719Z,101421.34
2023-03-15T06:16:58.779Z,101413.69
2023-03-15T06:19:25.741Z,101414.75
2023-03-15T06:21:52.702Z,101429.59
2023-03-15T06:24:19.566Z,101434.31
2023-03-15T06:26:46.452Z,101438.75
2023-03-15T06:29:13.390Z,101446.28
2023-03-15T06:31:40.294Z,101449.88
2023-03-15T06:34:07.206Z,101449.28
2023-03-15T06:36:34.237Z,101451.19
2023-03-15T06:39:03.240Z,101451.41
2023-03-15T06:41:30.481Z,101452.50
2023-03-15T06:43:57.548Z,101454.19
2023-03-15T06:46:24.681Z,101447.09
2023-03-15T06:48:51.822Z,101454.97
2023-03-15T06:51:19.033Z,101461.09
2023-03-15T06:53:46.228Z,101468.41
2023-03-15T06:56:13.683Z,101459.69
2023-03-15T06:58:40.622Z,101459.34
2023-03-15T07:01:07.714Z,101462.72
2023-03-15T07:03:34.857Z,101455.97
2023-03-15T07:06:02.236Z,101466.88
2023-03-15T07:08:29.302Z,101472.22
2023-03-15T07:10:56.706Z,101469.13
2023-03-15T07:13:23.785Z,101468.81
2023-03-15T07:15:52.785Z,101476.97
2023-03-15T07:18:20.257Z,101479.19
2023-03-15T07:20:47.841Z,101475.56
2023-03-15T07:23:15.165Z,101479.19
2023-03-15T07:25:54.324Z,101475.84
2023-03-15T07:28:22.864Z,101494.69
2023-03-15T07:30:53.144Z,101494.69
2023-03-15T07:33:23.156Z,101494.69
2023-03-15T07:35:52.054Z,101491.03
2023-03-15T07:38:19.483Z,101503.41
2023-03-15T07:40:46.504Z,101495.28
2023-03-15T07:43:13.546Z,101489.28
2023-03-15T07:45:41.307Z,101493.41
2023-03-15T07:48:08.440Z,101491.41
2023-03-15T07:50:35.690Z,101495.56
2023-03-15T07:53:03.776Z,101489.66
2023-03-15T07:55:31.891Z,101490.22
2023-03-15T07:58:00.539Z,101496.06
2023-03-15T08:00:27.969Z,101493.78
2023-03-15T08:02:55.603Z,101479.16
2023-03-15T08:05:22.819Z,101480.81
2023-03-15T08:07:49.987Z,101474.06
2023-03-15T08:10:17.940Z,101474.31
2023-03-15T08:12:45.459Z,101477.13
2023-03-15T08:15:13.811Z,101477.66
2023-03-15T08:17:42.078Z,101477.06
2023-03-15T08:20:11.917Z,101478.75
2023-03-15T08:22:39.392Z,101477.06
2023-03-15T08:25:07.554Z,101475.09
2023-03-15T08:27:34.907Z,101478.75
2023-03-15T08:30:02.339Z,101482.63
2023-03-15T08:32:30.915Z,101492.72
2023-03-15T08:34:58.843Z,101491.09
2023-03-15T08:37:26.089Z,101490.53
2023-03-15T08:40:01.366Z,101497.28
2023-03-15T08:42:28.908Z,101495.59
2023-03-15T08:45:00.089Z,101491.72
2023-03-15T08:47:27.209Z,101497.03
2023-03-15T08:49:54.435Z,101492.56
2023-03-15T08:52:22.014Z,101490.25
2023-03-15T08:54:49.464Z,101489.47
2023-03-15T08:57:16.502Z,101497.88
2023-03-15T08:59:43.807Z,101494.53
2023-03-15T09:02:14.778Z,101496.19
2023-03-15T09:04:41.986Z,101498.16
2023-03-15T09:07:09.431Z,101491.16
2023-03-15T09:09:44.836Z,101489.25
2023-03-15T09:12:12.118Z,101487.88
2023-03-15T09:14:39.467Z,101488.78
2023-03-15T09:17:07.351Z,101492.72
2023-03-15T09:19:34.770Z,101488.53
2023-03-15T09:22:16.332Z,101489.66
2023-03-15T09:24:44.250Z,101482.69
2023-03-15T09:27:26.234Z,101482.97
2023-03-15T09:29:53.427Z,101488.59
2023-03-15T09:32:21.524Z,101498.75
2023-03-15T09:34:48.794Z,101492.28
2023-03-15T09:37:16.190Z,101488.94
2023-03-15T09:39:43.595Z,101495.16
2023-03-15T09:42:17.514Z,101490.13
2023-03-15T09:44:45.885Z,101496.59
2023-03-15T09:47:21.347Z,101503.09
2023-03-15T09:49:55.377Z,101504.81
2023-03-15T09:52:22.888Z,101504.88
2023-03-15T09:54:54.642Z,101504.88
2023-03-15T09:57:28.389Z,101504.03
2023-03-15T09:59:56.986Z,101508.84
2023-03-15T10:02:25.360Z,101511.09
2023-03-15T10:04:57.155Z,101504.94
2023-03-15T10:07:25.271Z,101503.88
2023-03-15T10:09:52.774Z,101503.31
2023-03-15T10:12:24.759Z,101504.75
2023-03-15T10:14:55.747Z,101508.69
2023-03-15T10:17:25.961Z,101504.19
2023-03-15T10:19:55.550Z,101498.59
2023-03-15T10:22:26.159Z,101502.28
2023-03-15T10:24:56.853Z,101496.66
2023-03-15T10:27:27.381Z,101503.72
2023-03-15T10:30:01.953Z,101496.16
2023-03-15T10:33:01.879Z,101491.16
2023-03-15T10:41:17.882Z,101501.59
2023-03-15T10:43:57.035Z,101501.63
2023-03-15T10:46:24.453Z,101505.03
2023-03-15T10:48:53.857Z,101504.75
2023-03-15T10:51:24.475Z,101510.09
2023-03-15T10:53:54.659Z,101513.22
2023-03-15T10:56:26.146Z,101513.50
2023-03-15T10:59:09.458Z,101514.34
2023-03-15T11:01:39.181Z,101512.91
2023-03-15T11:04:12.973Z,101510.66
2023-03-15T11:06:42.465Z,101514.56
2023-03-15T11:09:12.259Z,101508.09
2023-03-15T11:11:42.368Z,101512.78
2023-03-15T11:14:09.238Z,101508.22
2023-03-15T11:16:38.499Z,101509.56
2023-03-15T11:19:12.578Z,101504.50
2023-03-15T11:21:40.733Z,101496.84
2023-03-15T11:24:07.883Z,101499.94
2023-03-15T11:26:37.694Z,101492.59
2023-03-15T11:29:06.948Z,101500.13
2023-03-15T11:31:34.503Z,101495.59
2023-03-15T11:34:04.808Z,101494.47
2023-03-15T11:36:34.094Z,101490.22
2023-03-15T11:39:04.092Z,101489.94
2023-03-15T11:41:31.332Z,101490.47
2023-03-15T11:44:01.527Z,101497.22
2023-03-15T11:46:32.620Z,101494.66
2023-03-15T11:49:03.252Z,101499.44
2023-03-15T11:51:33.996Z,101494.34
2023-03-15T11:54:05.900Z,101493.84
2023-03-15T11:56:46.318Z,101481.47
2023-03-15T11:59:13.863Z,101481.16
2023-03-15T12:01:43.883Z,101475.59
2023-03-15T12:04:15.563Z,101473.63
2023-03-15T12:06:43.249Z,101478.16
2023-03-15T12:09:13.448Z,101474.81
2023-03-15T12:11:41.813Z,101483.53
2023-03-15T12:14:12.158Z,101475.41
2023-03-15T12:16:42.498Z,101476.00
2023-03-15T12:19:11.913Z,101470.16
2023-03-15T12:21:41.773Z,101457.53
2023-03-15T12:24:16.072Z,101464.00
2023-03-15T12:26:46.480Z,101442.44
2023-03-15T12:29:17.221Z,101439.97
2023-03-15T12:31:47.798Z,101438.25
2023-03-15T12:34:23.249Z,101427.91
2023-03-15T12:36:52.492Z,101431.00
2023-03-15T12:39:21.158Z,101438.88
2023-03-15T12:41:49.761Z,101434.44
2023-03-15T12:44:18.982Z,101437.25
2023-03-15T12:46:46.382Z,101432.25
2023-03-15T12:49:16.941Z,101437.00
2023-03-15T12:51:53.924Z,101425.81
2023-03-15T12:54:24.305Z,101422.19
2023-03-15T12:56:56.645Z,101419.97
2023-03-15T12:59:24.456Z,101425.03
2023-03-15T13:01:52.290Z,101419.69
2023-03-15T13:04:19.493Z,101410.19
2023-03-15T13:06:50.091Z,101419.75
2023-03-15T13:09:18.591Z,101414.44
2023-03-15T13:11:48.970Z,101415.00
2023-03-15T13:14:19.322Z,101417.56
2023-03-15T13:16:51.674Z,101407.47
2023-03-15T13:19:20.793Z,101412.00
2023-03-15T13:21:52.999Z,101412.59
2023-03-15T13:24:24.288Z,101414.84
2023-03-15T13:26:54.435Z,101418.22
2023-03-15T13:29:27.346Z,101420.19
2023-03-15T13:32:01.078Z,101415.19
2023-03-15T13:34:31.453Z,101414.94
2023-03-15T13:36:59.409Z,101417.19
2023-03-15T13:39:27.666Z,101408.78
2023-03-15T13:41:58.011Z,101398.19
2023-03-15T13:44:25.610Z,101398.78
2023-03-15T13:46:53.786Z,101394.28
2023-03-15T13:49:21.686Z,101385.91
2023-03-15T13:51:49.649Z,101387.88
2023-03-15T13:54:20.153Z,101379.19
2023-03-15T13:56:56.551Z,101370.53
2023-03-15T13:59:27.090Z,101366.31
2023-03-15T14:01:54.973Z,101362.16
2023-03-15T14:04:23.148Z,101354.88
2023-03-15T14:06:51.435Z,101349.00
2023-03-15T14:09:22.060Z,101349.28
2023-03-15T14:11:52.792Z,101343.41
2023-03-15T14:14:22.840Z,101352.34
2023-03-15T14:17:04.315Z,101346.19
2023-03-15T14:19:34.010Z,101340.00
2023-03-15T14:22:02.591Z,101343.63
2023-03-15T14:24:30.092Z,101344.72
2023-03-15T14:26:58.520Z,101335.97
2023-03-15T14:29:29.547Z,101336.16
2023-03-15T14:32:00.435Z,101339.22
2023-03-15T14:34:34.197Z,101334.94
2023-03-15T14:37:06.101Z,101330.63
2023-03-15T14:39:36.260Z,101331.16
2023-03-15T14:42:03.630Z,101341.16
2023-03-15T14:44:31.069Z,101329.63
2023-03-15T14:46:58.741Z,101331.25
2023-03-15T14:49:27.129Z,101320.78
2023-03-15T14:51:57.207Z,101325.22
2023-03-15T14:54:24.595Z,101325.72
2023-03-15T14:56:51.952Z,101312.47
2023-03-15T14:59:19.415Z,101319.47
2023-03-15T15:01:50.395Z,101314.59
2023-03-15T15:04:18.313Z,101314.03
2023-03-15T15:06:53.009Z,101312.59
2023-03-15T15:09:23.106Z,101306.91
2023-03-15T15:11:51.158Z,101310.78
2023-03-15T15:14:18.896Z,101310.22
2023-03-15T15:16:46.664Z,101303.97
2023-03-15T15:19:14.585Z,101302.53
2023-03-15T15:21:44.175Z,101299.97
2023-03-15T15:24:15.013Z,101290.94
2023-03-15T15:26:42.546Z,101292.00
2023-03-15T15:29:14.019Z,101289.44
2023-03-15T15:31:41.913Z,101279.88
2023-03-15T15:34:10.101Z,101282.91
2023-03-15T15:36:39.103Z,101288.50
2023-03-15T15:39:11.858Z,101281.47
2023-03-15T15:41:39.019Z,101270.25
2023-03-15T15:44:11.697Z,101272.72
2023-03-15T15:46:39.295Z,101272.72
2023-03-15T15:49:06.585Z,101272.72
2023-03-15T15:51:38.550Z,101271.88
2023-03-15T15:54:06.762Z,101266.59
2023-03-15T15:56:36.208Z,101266.88
2023-03-15T15:59:10.981Z,101263.53
2023-03-15T16:02:00.749Z,101261.03
2023-03-15T16:04:29.248Z,101267.78
2023-03-15T16:06:57.722Z,101264.75
2023-03-15T16:09:26.168Z,101263.38
2023-03-15T16:11:54.038Z,101270.44
2023-03-15T16:14:21.750Z,101265.13
2023-03-15T16:16:49.197Z,101269.38
2023-03-15T16:19:16.638Z,101267.19
2023-03-15T16:21:47.976Z,101268.91
2023-03-15T16:24:17.866Z,101264.44
2023-03-15T16:26:46.304Z,101259.19
2023-03-15T16:29:16.293Z,101250.84
2023-03-15T16:31:44.686Z,101261.84
2023-03-15T16:34:13.008Z,101248.69
2023-03-15T16:36:43.985Z,101256.06
2023-03-15T16:39:13.987Z,101249.38
2023-03-15T16:41:41.541Z,101248.31
2023-03-15T16:44:12.137Z,101244.91
2023-03-15T16:46:39.925Z,101242.16
2023-03-15T16:49:07.474Z,101242.78
2023-03-15T16:51:36.482Z,101237.44
2023-03-15T16:54:17.710Z,101238.06
2023-03-15T16:56:49.734Z,101235.53
2023-03-15T16:59:17.885Z,101234.19
2023-03-15T17:01:46.059Z,101234.41
2023-03-15T17:04:15.585Z,101222.06
2023-03-15T17:06:46.849Z,101224.03
2023-03-15T17:09:18.602Z,101223.47
2023-03-15T17:11:47.894Z,101226.59
2023-03-15T17:14:18.218Z,101214.00
2023-03-15T17:16:46.647Z,101208.16
2023-03-15T17:19:15.665Z,101212.41
2023-03-15T17:28:20.156Z,101203.63
2023-03-15T17:36:39.211Z,101199.25
2023-03-15T17:39:07.529Z,101195.81
2023-03-15T17:41:38.836Z,101198.53
2023-03-15T17:44:07.126Z,101201.59
2023-03-15T17:46:46.438Z,101193.91
2023-03-15T17:49:16.893Z,101189.09
2023-03-15T17:51:44.678Z,101192.66
2023-03-15T17:54:14.381Z,101187.88
2023-03-15T17:56:41.581Z,101190.41
2023-03-15T17:59:11.171Z,101190.63
2023-03-15T18:01:39.401Z,101188.03
2023-03-15T18:04:10.032Z,101187.75
2023-03-15T18:06:37.448Z,101178.41
2023-03-15T18:09:11.948Z,101182.56
2023-03-15T18:11:44.042Z,101178.84
2023-03-15T18:14:14.406Z,101186.66
2023-03-15T18:20:03.374Z,101186.56
2023-03-15T18:22:32.267Z,101187.94
2023-03-15T18:25:00.946Z,101184.81
2023-03-15T18:27:29.449Z,101184.53
2023-03-15T18:29:59.566Z,101194.84
2023-03-15T18:32:28.218Z,101187.75
2023-03-15T18:34:56.052Z,101183.53
2023-03-15T18:37:24.060Z,101184.88
2023-03-15T18:39:51.723Z,101180.63
2023-03-15T18:42:18.886Z,101183.13
2023-03-15T18:44:46.239Z,101185.63
2023-03-15T18:47:14.363Z,101189.81
2023-03-15T18:49:41.699Z,101178.03
2023-03-15T18:52:09.588Z,101174.09
2023-03-15T18:54:37.415Z,101174.09
2023-03-15T18:57:05.340Z,101168.78
2023-03-15T18:59:34.247Z,101160.34
2023-03-15T19:02:01.792Z,101160.63
2023-03-15T19:04:29.741Z,101160.97
2023-03-15T19:10:14.123Z,101148.34
2023-03-15T19:12:41.213Z,101151.78
2023-03-15T19:15:11.880Z,101152.31
2023-03-15T19:17:39.140Z,101143.66
2023-03-15T19:20:07.768Z,101139.78
2023-03-15T19:22:35.020Z,101137.81
2023-03-15T19:25:01.692Z,101128.34
2023-03-15T19:27:28.318Z,101116.97
2023-03-15T19:29:54.927Z,101125.19
2023-03-15T19:32:21.701Z,101121.84
2023-03-15T19:34:48.442Z,101110.41
2023-03-15T19:37:15.232Z,101112.66
2023-03-15T19:40:06.426Z,101120.03
2023-03-15T19:42:45.362Z,101108.28
2023-03-15T19:45:32.450Z,101104.09
2023-03-15T19:48:20.604Z,101100.25
2023-03-15T19:51:11.509Z,101092.44
2023-03-15T19:53:58.078Z,101094.19
2023-03-15T19:56:49.538Z,101105.72
2023-03-15T19:59:41.726Z,101107.91
2023-03-15T20:02:34.048Z,101093.34
2023-03-15T20:05:31.617Z,101092.50
2023-03-15T20:08:28.187Z,101093.22
2023-03-15T20:11:42.715Z,101094.03
2023-03-15T20:14:34.778Z,101088.66
2023-03-15T20:17:36.678Z,101087.19
2023-03-15T20:20:29.557Z,101089.09
2023-03-15T20:23:17.546Z,101089.00
2023-03-15T20:25:44.182Z,101081.97
2023-03-15T20:28:11.306Z,101085.28
2023-03-15T20:30:43.893Z,101082.69
2023-03-15T20:33:12.300Z,101086.59
2023-03-15T20:35:39.020Z,101086.25
2023-03-15T20:38:08.690Z,101076.06
2023-03-15T20:40:38.723Z,101073.81
2023-03-15T20:43:06.118Z,101071.50
2023-03-15T20:45:33.533Z,101065.59
2023-03-15T20:48:12.556Z,101061.66
2023-03-15T20:50:39.322Z,101072.56
2023-03-15T20:53:06.138Z,101063.84
2023-03-15T20:55:32.810Z,101066.63
2023-03-15T20:58:05.453Z,101061.03
2023-03-15T21:00:32.499Z,101053.44
2023-03-15T21:02:59.218Z,101061.56
2023-03-15T21:05:28.079Z,101055.41
2023-03-15T21:08:10.056Z,101057.38
2023-03-15T21:10:37.216Z,101053.72
2023-03-15T21:13:09.851Z,101041.66
2023-03-15T21:15:49.406Z,101032.44
2023-03-15T21:18:17.039Z,101029.09
2023-03-15T21:20:44.150Z,101024.31
2023-03-15T21:23:11.481Z,101022.34
2023-03-15T21:25:38.271Z,101014.75
2023-03-15T21:28:07.526Z,101013.38
2023-03-15T21:30:34.226Z,101007.75
2023-03-15T21:33:01.649Z,101006.09
2023-03-15T21:35:28.314Z,101006.09
2023-03-15T21:38:07.893Z,101006.91
2023-03-15T21:40:35.314Z,101001.09
2023-03-15T21:43:02.250Z,101005.56
2023-03-15T21:45:30.757Z,100996.09
2023-03-15T21:48:07.838Z,100992.75
2023-03-15T21:50:35.224Z,100999.09
2023-03-15T21:53:02.517Z,101003.88
2023-03-15T21:55:33.819Z,100999.19
2023-03-15T21:58:03.279Z,100999.25
2023-03-15T22:00:30.631Z,100996.53
2023-03-15T22:02:57.969Z,100989.59
2023-03-15T22:05:25.505Z,101003.41
2023-03-15T22:07:54.339Z,100992.75
2023-03-15T22:10:22.326Z,100990.59
2023-03-15T22:12:49.145Z,100990.59
2023-03-15T22:15:15.895Z,100988.41
2023-03-15T22:17:42.655Z,100983.09
2023-03-15T22:20:13.328Z,100987.69
2023-03-15T22:22:40.008Z,100969.81
2023-03-15T22:25:06.948Z,100966.78
2023-03-15T22:27:33.642Z,100967.09
2023-03-15T22:30:00.408Z,100960.94
2023-03-15T22:32:27.197Z,100959.56
2023-03-15T22:34:53.959Z,100958.50
2023-03-15T22:37:20.721Z,100946.75
2023-03-15T22:39:48.253Z,100950.72
2023-03-15T22:42:34.526Z,100947.66
2023-03-15T22:45:17.310Z,100942.66
2023-03-15T22:47:44.026Z,100939.31
2023-03-15T22:50:11.782Z,100934.78
2023-03-15T22:52:38.721Z,100932.41
2023-03-15T22:55:06.307Z,100925.63
2023-03-15T22:57:39.731Z,100925.53
2023-03-15T23:00:32.658Z,100915.34
2023-03-15T23:03:06.662Z,100912.75
2023-03-15T23:05:54.682Z,100920.25
2023-03-15T23:11:14.465Z,100913.09
2023-03-15T23:13:42.502Z,100906.53
2023-03-15T23:16:10.466Z,100908.75
2023-03-15T23:18:43.902Z,100906.97
2023-03-15T23:21:21.442Z,100911.97
2023-03-15T23:23:49.479Z,100896.16
2023-03-15T23:26:17.127Z,100898.34
2023-03-15T23:28:43.839Z,100882.84
2023-03-15T23:31:10.543Z,100888.97
2023-03-15T23:33:37.832Z,100884.72
2023-03-15T23:36:05.951Z,100867.53
2023-03-15T23:38:36.026Z,100873.69
2023-03-15T23:41:02.659Z,100868.59
2023-03-15T23:43:29.264Z,100870.25
2023-03-15T23:45:57.015Z,100873.28
2023-03-15T23:48:23.730Z,100868.47
2023-03-15T23:50:54.477Z,100856.09
2023-03-15T23:53:21.614Z,100864.22
2023-03-15T23:55:48.944Z,100859.44
2023-03-15T23:58:15.738Z,100847.06
